Yilmaz Kaptan — TCAU2 — position and weather

sailwx.info

Track history (hours):
 
Tides and Currents Weather Stations Pressure Air Temp Water Temp Dewpoint Dewpoint Depression Visibility Wind Speed Wind Dir Waves Ship Positions

Yilmaz Kaptan

Last reported at 2017-Sep-18 17:35 UTC. Time now 2017-Sep-25 09:52 UTC.
Position N 41°16' E 029°04'.

Length 73 m; draft 4.6 m.

Type: Cargo ship. MMSI: 271002143.

Date/timePositionNaut miles runAvg speedWind from/ knotsBaromVisibWave heightAir tempDewpointWater temp
2017-Sep-18 17:35N 41°16' E 029°04'0 0.0
2017-Sep-18 17:23N 41°16' E 029°04'0 0.0
2017-Sep-18 15:59N 41°16' E 029°04'0 0.0
2017-Sep-18 13:30N 41°16' E 029°04'0 0.0
2017-Sep-18 12:58N 41°16' E 029°04'65 7.5
2017-Sep-18 04:17N 41°22' E 030°30'245 7.2
2017-Sep-16 18:23N 43°41' E 035°05'3 8.0
2017-Sep-16 18:00N 43°43' E 035°08'107 8.1
2017-Sep-16 04:46N 45°13' E 036°28'6 6.3
2017-Sep-16 03:46N 45°19' E 036°32'2 8.0
2017-Sep-16 03:30N 45°20' E 036°35'4 7.7
2017-Sep-16 03:00N 45°22' E 036°40'4 7.5
2017-Sep-16 02:30N 45°26' E 036°41'4 0.8
2017-Sep-15 21:23N 45°29' E 036°39'0 0.1
2017-Sep-15 20:19N 45°30' E 036°39'3 0.1
2017-Sep-13 23:50N 45°28' E 036°43'2 7.4
2017-Sep-13 23:30N 45°26' E 036°42'4 7.5
2017-Sep-13 23:00N 45°22' E 036°40'4 7.7
2017-Sep-13 22:31N 45°20' E 036°36'48 5.6
2017-Sep-13 14:00N 44°38' E 036°06'214 7.5
2017-Sep-12 09:25N 44°25' E 031°07'3 6.0
2017-Sep-12 08:53N 44°24' E 031°02'2 5.6
2017-Sep-12 08:30N 44°24' E 030°59'3 5.7
2017-Sep-12 08:00N 44°23' E 030°56'3 5.7
2017-Sep-12 07:30N 44°23' E 030°52'3 6.0
2017-Sep-12 07:01N 44°22' E 030°48'3 6.0
2017-Sep-12 06:31N 44°21' E 030°44'3 6.2
2017-Sep-12 06:00N 44°20' E 030°39'3 6.2
2017-Sep-12 05:30N 44°19' E 030°35'3 6.2
2017-Sep-12 05:00N 44°18' E 030°31'3 5.8
2017-Sep-12 04:30N 44°18' E 030°27'3 6.0
2017-Sep-12 04:00N 44°17' E 030°23'3 6.2
2017-Sep-12 03:30N 44°16' E 030°19'3 6.7
2017-Sep-12 03:00N 44°16' E 030°14'4 7.2
2017-Sep-12 02:30N 44°16' E 030°09'4 7.6
2017-Sep-12 02:00N 44°17' E 030°04'4 7.7
2017-Sep-12 01:30N 44°17' E 029°59'4 7.7
2017-Sep-12 01:00N 44°17' E 029°53'5 7.9
2017-Sep-12 00:22N 44°17' E 029°46'3 7.7
2017-Sep-12 00:00N 44°17' E 029°42'4 7.7
2017-Sep-11 23:30N 44°18' E 029°37'4 8.0
2017-Sep-11 23:00N 44°18' E 029°31'4 8.2
2017-Sep-11 22:30N 44°19' E 029°26'4 8.3
2017-Sep-11 22:00N 44°20' E 029°20'4 8.2
2017-Sep-11 21:30N 44°20' E 029°14'4 8.0
2017-Sep-11 21:00N 44°21' E 029°09'4 7.9
2017-Sep-11 20:30N 44°21' E 029°03'4 7.9
2017-Sep-11 20:00N 44°21' E 028°58'4 7.6
2017-Sep-11 19:30N 44°22' E 028°53'4 7.6
2017-Sep-11 19:00N 44°21' E 028°47'4 8.1
2017-Sep-11 18:30N 44°19' E 028°43'2 4.3
2017-Sep-11 18:01N 44°20' E 028°40'0 0.2
2017-Sep-11 17:22N 44°20' E 028°41'0 0.0
2017-Sep-11 16:54N 44°20' E 028°41'0 0.0
2017-Sep-11 16:30N 44°20' E 028°41'  
Track history (hours):
 
Tides and Currents Weather Stations Pressure Air Temp Water Temp Dewpoint Dewpoint Depression Visibility Wind Speed Wind Dir Waves Ship Positions

Yilmaz Kaptan

Last reported at 2017-Sep-18 17:35 UTC. Time now 2017-Sep-25 09:52 UTC.
Position N 41°16' E 029°04'.

Length 73 m; draft 4.6 m.

Type: Cargo ship. MMSI: 271002143.

Date/timePositionNaut miles runAvg speedWind from/ knotsBaromVisibWave heightAir tempDewpointWater temp
2017-Sep-18 17:35N 41°16' E 029°04'0 0.0
2017-Sep-18 17:23N 41°16' E 029°04'0 0.0
2017-Sep-18 15:59N 41°16' E 029°04'0 0.0
2017-Sep-18 13:30N 41°16' E 029°04'0 0.0
2017-Sep-18 12:58N 41°16' E 029°04'65 7.5
2017-Sep-18 04:17N 41°22' E 030°30'245 7.2
2017-Sep-16 18:23N 43°41' E 035°05'3 8.0
2017-Sep-16 18:00N 43°43' E 035°08'107 8.1
2017-Sep-16 04:46N 45°13' E 036°28'6 6.3
2017-Sep-16 03:46N 45°19' E 036°32'2 8.0
2017-Sep-16 03:30N 45°20' E 036°35'4 7.7
2017-Sep-16 03:00N 45°22' E 036°40'4 7.5
2017-Sep-16 02:30N 45°26' E 036°41'4 0.8
2017-Sep-15 21:23N 45°29' E 036°39'0 0.1
2017-Sep-15 20:19N 45°30' E 036°39'3 0.1
2017-Sep-13 23:50N 45°28' E 036°43'2 7.4
2017-Sep-13 23:30N 45°26' E 036°42'4 7.5
2017-Sep-13 23:00N 45°22' E 036°40'4 7.7
2017-Sep-13 22:31N 45°20' E 036°36'48 5.6
2017-Sep-13 14:00N 44°38' E 036°06'214 7.5
2017-Sep-12 09:25N 44°25' E 031°07'3 6.0
2017-Sep-12 08:53N 44°24' E 031°02'2 5.6
2017-Sep-12 08:30N 44°24' E 030°59'3 5.7
2017-Sep-12 08:00N 44°23' E 030°56'3 5.7
2017-Sep-12 07:30N 44°23' E 030°52'3 6.0
2017-Sep-12 07:01N 44°22' E 030°48'3 6.0
2017-Sep-12 06:31N 44°21' E 030°44'3 6.2
2017-Sep-12 06:00N 44°20' E 030°39'3 6.2
2017-Sep-12 05:30N 44°19' E 030°35'3 6.2
2017-Sep-12 05:00N 44°18' E 030°31'3 5.8
2017-Sep-12 04:30N 44°18' E 030°27'3 6.0
2017-Sep-12 04:00N 44°17' E 030°23'3 6.2
2017-Sep-12 03:30N 44°16' E 030°19'3 6.7
2017-Sep-12 03:00N 44°16' E 030°14'4 7.2
2017-Sep-12 02:30N 44°16' E 030°09'4 7.6
2017-Sep-12 02:00N 44°17' E 030°04'4 7.7
2017-Sep-12 01:30N 44°17' E 029°59'4 7.7
2017-Sep-12 01:00N 44°17' E 029°53'5 7.9
2017-Sep-12 00:22N 44°17' E 029°46'3 7.7
2017-Sep-12 00:00N 44°17' E 029°42'4 7.7
2017-Sep-11 23:30N 44°18' E 029°37'4 8.0
2017-Sep-11 23:00N 44°18' E 029°31'4 8.2
2017-Sep-11 22:30N 44°19' E 029°26'4 8.3
2017-Sep-11 22:00N 44°20' E 029°20'4 8.2
2017-Sep-11 21:30N 44°20' E 029°14'4 8.0
2017-Sep-11 21:00N 44°21' E 029°09'4 7.9
2017-Sep-11 20:30N 44°21' E 029°03'4 7.9
2017-Sep-11 20:00N 44°21' E 028°58'4 7.6
2017-Sep-11 19:30N 44°22' E 028°53'4 7.6
2017-Sep-11 19:00N 44°21' E 028°47'4 8.1
2017-Sep-11 18:30N 44°19' E 028°43'2 4.3
2017-Sep-11 18:01N 44°20' E 028°40'0 0.2
2017-Sep-11 17:22N 44°20' E 028°41'0 0.0
2017-Sep-11 16:54N 44°20' E 028°41'0 0.0
2017-Sep-11 16:30N 44°20' E 028°41'  

Dump ship's entire track history